sensor_id;sensor_type;location;lat;lon;timestamp;pressure;altitude;pressure_sealevel;temperature;humidity
25722;BME280;13578;53.450;15.496;2023-05-19T00:00:40;101036.34;;;7.37;100.00
25722;BME280;13578;53.450;15.496;2023-05-19T00:03:51;101037.06;;;7.41;100.00
25722;BME280;13578;53.450;15.496;2023-05-19T00:06:53;101027.91;;;7.42;100.00
25722;BME280;13578;53.450;15.496;2023-05-19T00:09:54;101021.47;;;7.43;100.00
25722;BME280;13578;53.450;15.496;2023-05-19T00:12:56;101032.56;;;7.56;100.00
25722;BME280;13578;53.450;15.496;2023-05-19T00:15:56;101033.34;;;7.58;100.00
25722;BME280;13578;53.450;15.496;2023-05-19T00:18:58;101030.44;;;7.61;100.00
25722;BME280;13578;53.450;15.496;2023-05-19T00:21:59;101019.69;;;7.58;100.00
25722;BME280;13578;53.450;15.496;2023-05-19T00:25:00;101021.72;;;7.54;100.00
25722;BME280;13578;53.450;15.496;2023-05-19T00:28:01;101014.41;;;7.55;100.00
25722;BME280;13578;53.450;15.496;2023-05-19T00:31:05;101012.75;;;7.52;100.00
25722;BME280;13578;53.450;15.496;2023-05-19T00:34:06;101023.38;;;7.57;100.00
25722;BME280;13578;53.450;15.496;2023-05-19T00:37:06;101006.47;;;7.50;100.00
25722;BME280;13578;53.450;15.496;2023-05-19T00:40:08;101006.75;;;7.45;100.00
25722;BME280;13578;53.450;15.496;2023-05-19T00:43:09;101006.16;;;7.40;100.00
25722;BME280;13578;53.450;15.496;2023-05-19T00:46:10;101001.44;;;7.42;100.00
25722;BME280;13578;53.450;15.496;2023-05-19T00:49:11;101009.03;;;7.37;100.00
25722;BME280;13578;53.450;15.496;2023-05-19T00:52:11;101008.94;;;7.39;100.00
25722;BME280;13578;53.450;15.496;2023-05-19T00:55:12;101006.91;;;7.42;100.00
25722;BME280;13578;53.450;15.496;2023-05-19T00:58:13;101017.22;;;7.37;100.00
25722;BME280;13578;53.450;15.496;2023-05-19T01:01:14;101007.63;;;7.30;100.00
25722;BME280;13578;53.450;15.496;2023-05-19T01:04:19;101013.19;;;7.28;100.00
25722;BME280;13578;53.450;15.496;2023-05-19T01:07:21;101017.84;;;7.26;100.00
25722;BME280;13578;53.450;15.496;2023-05-19T01:10:22;101006.06;;;7.26;100.00
25722;BME280;13578;53.450;15.496;2023-05-19T01:13:23;101006.81;;;7.28;100.00
25722;BME280;13578;53.450;15.496;2023-05-19T01:16:30;101015.81;;;7.30;100.00
25722;BME280;13578;53.450;15.496;2023-05-19T01:20:09;101011.59;;;7.24;100.00
25722;BME280;13578;53.450;15.496;2023-05-19T01:29:27;101016.16;;;7.24;100.00
25722;BME280;13578;53.450;15.496;2023-05-19T01:32:29;101010.34;;;7.30;100.00
25722;BME280;13578;53.450;15.496;2023-05-19T01:35:31;101010.44;;;7.44;100.00
25722;BME280;13578;53.450;15.496;2023-05-19T01:38:37;101016.09;;;7.41;100.00
25722;BME280;13578;53.450;15.496;2023-05-19T01:41:40;101007.47;;;7.33;100.00
25722;BME280;13578;53.450;15.496;2023-05-19T01:44:41;101017.84;;;7.26;100.00
25722;BME280;13578;53.450;15.496;2023-05-19T01:47:45;101016.44;;;7.35;100.00
25722;BME280;13578;53.450;15.496;2023-05-19T01:50:46;101018.53;;;7.46;100.00
25722;BME280;13578;53.450;15.496;2023-05-19T01:53:47;101014.16;;;7.27;100.00
25722;BME280;13578;53.450;15.496;2023-05-19T01:57:29;101018.56;;;7.30;100.00
25722;BME280;13578;53.450;15.496;2023-05-19T02:07:00;101009.91;;;7.22;100.00
25722;BME280;13578;53.450;15.496;2023-05-19T02:10:13;101001.56;;;7.25;100.00
25722;BME280;13578;53.450;15.496;2023-05-19T02:13:19;100995.75;;;7.31;100.00
25722;BME280;13578;53.450;15.496;2023-05-19T02:16:25;100998.91;;;7.39;100.00
25722;BME280;13578;53.450;15.496;2023-05-19T02:19:30;101009.03;;;7.37;100.00
25722;BME280;13578;53.450;15.496;2023-05-19T02:22:31;100994.75;;;7.48;100.00
25722;BME280;13578;53.450;15.496;2023-05-19T02:25:32;100997.59;;;7.46;100.00
25722;BME280;13578;53.450;15.496;2023-05-19T02:28:34;100993.63;;;7.36;100.00
25722;BME280;13578;53.450;15.496;2023-05-19T02:31:35;100990.53;;;7.42;100.00
25722;BME280;13578;53.450;15.496;2023-05-19T02:34:36;100985.06;;;7.26;100.00
25722;BME280;13578;53.450;15.496;2023-05-19T02:37:37;100997.66;;;7.29;100.00
25722;BME280;13578;53.450;15.496;2023-05-19T02:40:38;100988.59;;;7.28;100.00
25722;BME280;13578;53.450;15.496;2023-05-19T02:43:38;100976.63;;;7.31;100.00
25722;BME280;13578;53.450;15.496;2023-05-19T02:46:39;100991.06;;;7.33;100.00
25722;BME280;13578;53.450;15.496;2023-05-19T02:49:39;100984.72;;;7.32;100.00
25722;BME280;13578;53.450;15.496;2023-05-19T02:52:40;100977.78;;;7.27;100.00
25722;BME280;13578;53.450;15.496;2023-05-19T02:55:41;100990.72;;;7.39;100.00
25722;BME280;13578;53.450;15.496;2023-05-19T02:58:42;100987.53;;;7.31;100.00
25722;BME280;13578;53.450;15.496;2023-05-19T03:01:42;100991.94;;;7.34;100.00
25722;BME280;13578;53.450;15.496;2023-05-19T03:04:43;100992.66;;;7.37;100.00
25722;BME280;13578;53.450;15.496;2023-05-19T03:07:44;100999.16;;;7.35;100.00
25722;BME280;13578;53.450;15.496;2023-05-19T03:10:46;100992.66;;;7.37;100.00
25722;BME280;13578;53.450;15.496;2023-05-19T03:13:46;100991.34;;;7.28;100.00
25722;BME280;13578;53.450;15.496;2023-05-19T03:16:47;101000.13;;;7.34;100.00
25722;BME280;13578;53.450;15.496;2023-05-19T03:19:47;101010.88;;;7.21;100.00
25722;BME280;13578;53.450;15.496;2023-05-19T03:22:48;101005.59;;;7.18;100.00
25722;BME280;13578;53.450;15.496;2023-05-19T03:25:49;101004.78;;;7.31;100.00
25722;BME280;13578;53.450;15.496;2023-05-19T03:28:50;101008.69;;;7.43;100.00
25722;BME280;13578;53.450;15.496;2023-05-19T03:31:51;100994.94;;;7.29;100.00
25722;BME280;13578;53.450;15.496;2023-05-19T03:34:51;101007.63;;;7.30;100.00
25722;BME280;13578;53.450;15.496;2023-05-19T03:37:52;101008.50;;;7.46;100.00
25722;BME280;13578;53.450;15.496;2023-05-19T03:40:53;101011.75;;;7.69;100.00
25722;BME280;13578;53.450;15.496;2023-05-19T03:43:53;100996.75;;;7.76;100.00
25722;BME280;13578;53.450;15.496;2023-05-19T03:46:54;101009.50;;;7.92;100.00
25722;BME280;13578;53.450;15.496;2023-05-19T03:49:55;101011.66;;;8.01;100.00
25722;BME280;13578;53.450;15.496;2023-05-19T03:52:56;101008.25;;;7.98;100.00
25722;BME280;13578;53.450;15.496;2023-05-19T03:55:57;101014.41;;;8.01;100.00
25722;BME280;13578;53.450;15.496;2023-05-19T03:58:58;101011.50;;;8.04;100.00
25722;BME280;13578;53.450;15.496;2023-05-19T04:01:59;101015.34;;;8.16;100.00
25722;BME280;13578;53.450;15.496;2023-05-19T04:05:00;100999.66;;;8.34;100.00
25722;BME280;13578;53.450;15.496;2023-05-19T04:08:00;101012.00;;;8.41;100.00
25722;BME280;13578;53.450;15.496;2023-05-19T04:11:01;101007.44;;;8.56;100.00
25722;BME280;13578;53.450;15.496;2023-05-19T04:14:02;100996.72;;;8.97;100.00
25722;BME280;13578;53.450;15.496;2023-05-19T04:17:02;100987.41;;;9.14;100.00
25722;BME280;13578;53.450;15.496;2023-05-19T04:20:03;100990.69;;;9.33;100.00
25722;BME280;13578;53.450;15.496;2023-05-19T04:23:07;100986.06;;;9.48;100.00
25722;BME280;13578;53.450;15.496;2023-05-19T04:26:07;100971.56;;;9.74;100.00
25722;BME280;13578;53.450;15.496;2023-05-19T04:29:08;100969.66;;;10.01;100.00
25722;BME280;13578;53.450;15.496;2023-05-19T04:32:09;100974.38;;;9.99;100.00
25722;BME280;13578;53.450;15.496;2023-05-19T04:35:10;100979.41;;;9.93;100.00
25722;BME280;13578;53.450;15.496;2023-05-19T04:38:13;100971.97;;;10.08;100.00
25722;BME280;13578;53.450;15.496;2023-05-19T04:41:17;100978.91;;;10.13;100.00
25722;BME280;13578;53.450;15.496;2023-05-19T04:44:18;100967.97;;;10.26;100.00
25722;BME280;13578;53.450;15.496;2023-05-19T04:47:19;100981.69;;;10.26;100.00
25722;BME280;13578;53.450;15.496;2023-05-19T04:50:21;100972.34;;;10.29;100.00
25722;BME280;13578;53.450;15.496;2023-05-19T04:53:22;100982.78;;;10.24;100.00
25722;BME280;13578;53.450;15.496;2023-05-19T04:56:24;100980.69;;;10.27;100.00
25722;BME280;13578;53.450;15.496;2023-05-19T04:59:26;100992.84;;;10.23;100.00
25722;BME280;13578;53.450;15.496;2023-05-19T05:02:27;100989.56;;;10.18;100.00
25722;BME280;13578;53.450;15.496;2023-05-19T05:05:27;100982.53;;;10.14;100.00
25722;BME280;13578;53.450;15.496;2023-05-19T05:08:28;100982.75;;;10.11;100.00
25722;BME280;13578;53.450;15.496;2023-05-19T05:11:29;100991.00;;;10.24;100.00
25722;BME280;13578;53.450;15.496;2023-05-19T05:14:30;100979.69;;;10.15;100.00
25722;BME280;13578;53.450;15.496;2023-05-19T05:17:32;100978.78;;;10.02;100.00
25722;BME280;13578;53.450;15.496;2023-05-19T05:20:34;100993.06;;;10.07;100.00
25722;BME280;13578;53.450;15.496;2023-05-19T05:23:35;100994.16;;;10.17;100.00
25722;BME280;13578;53.450;15.496;2023-05-19T05:26:36;101002.53;;;10.29;100.00
25722;BME280;13578;53.450;15.496;2023-05-19T05:29:37;100986.69;;;10.47;100.00
25722;BME280;13578;53.450;15.496;2023-05-19T05:32:38;101003.25;;;10.58;100.00
25722;BME280;13578;53.450;15.496;2023-05-19T05:35:39;100992.38;;;10.57;100.00
25722;BME280;13578;53.450;15.496;2023-05-19T05:38:39;100996.66;;;10.48;100.00
25722;BME280;13578;53.450;15.496;2023-05-19T05:41:40;100994.44;;;10.40;100.00
25722;BME280;13578;53.450;15.496;2023-05-19T05:44:40;100988.09;;;10.65;100.00
25722;BME280;13578;53.450;15.496;2023-05-19T05:47:41;100995.00;;;10.71;100.00
25722;BME280;13578;53.450;15.496;2023-05-19T05:50:44;100995.03;;;10.84;100.00
25722;BME280;13578;53.450;15.496;2023-05-19T05:53:50;100992.34;;;10.95;100.00
25722;BME280;13578;53.450;15.496;2023-05-19T05:56:51;100985.97;;;11.08;100.00
25722;BME280;13578;53.450;15.496;2023-05-19T05:59:52;100977.63;;;11.09;100.00
25722;BME280;13578;53.450;15.496;2023-05-19T06:02:52;100997.38;;;11.27;100.00
25722;BME280;13578;53.450;15.496;2023-05-19T06:05:53;100993.47;;;11.43;100.00
25722;BME280;13578;53.450;15.496;2023-05-19T06:08:53;100997.94;;;11.81;100.00
25722;BME280;13578;53.450;15.496;2023-05-19T06:11:56;100984.66;;;11.75;100.00
25722;BME280;13578;53.450;15.496;2023-05-19T06:14:57;100990.22;;;12.11;100.00
25722;BME280;13578;53.450;15.496;2023-05-19T06:17:58;100986.03;;;12.29;100.00
25722;BME280;13578;53.450;15.496;2023-05-19T06:20:58;100986.72;;;12.55;100.00
25722;BME280;13578;53.450;15.496;2023-05-19T06:23:59;100982.09;;;12.56;97.59
25722;BME280;13578;53.450;15.496;2023-05-19T06:26:59;100986.88;;;12.65;98.74
25722;BME280;13578;53.450;15.496;2023-05-19T06:30:01;100979.47;;;13.00;95.13
25722;BME280;13578;53.450;15.496;2023-05-19T06:33:02;100972.59;;;13.06;94.93
25722;BME280;13578;53.450;15.496;2023-05-19T06:36:03;100957.56;;;13.32;92.10
25722;BME280;13578;53.450;15.496;2023-05-19T06:39:03;100961.06;;;13.46;91.53
25722;BME280;13578;53.450;15.496;2023-05-19T06:42:04;100935.63;;;13.19;87.86
25722;BME280;13578;53.450;15.496;2023-05-19T06:45:05;100956.44;;;13.12;90.05
25722;BME280;13578;53.450;15.496;2023-05-19T06:48:06;100969.19;;;13.36;92.19
25722;BME280;13578;53.450;15.496;2023-05-19T06:51:06;100945.16;;;13.38;87.97
25722;BME280;13578;53.450;15.496;2023-05-19T06:54:09;100964.88;;;13.66;89.78
25722;BME280;13578;53.450;15.496;2023-05-19T06:57:14;100955.06;;;13.73;85.73
25722;BME280;13578;53.450;15.496;2023-05-19T07:00:15;100942.63;;;13.79;86.26
25722;BME280;13578;53.450;15.496;2023-05-19T07:03:17;100951.59;;;13.71;85.48
25722;BME280;13578;53.450;15.496;2023-05-19T07:06:18;100945.69;;;13.97;84.21
25722;BME280;13578;53.450;15.496;2023-05-19T07:09:19;100946.91;;;14.04;84.10
25722;BME280;13578;53.450;15.496;2023-05-19T07:12:20;100949.09;;;14.22;82.93
25722;BME280;13578;53.450;15.496;2023-05-19T07:15:20;100938.59;;;14.16;82.25
25722;BME280;13578;53.450;15.496;2023-05-19T07:18:21;100954.59;;;14.43;83.46
25722;BME280;13578;53.450;15.496;2023-05-19T07:21:22;100959.44;;;14.51;83.39
25722;BME280;13578;53.450;15.496;2023-05-19T07:24:22;100946.91;;;14.89;81.97
25722;BME280;13578;53.450;15.496;2023-05-19T07:27:24;100948.16;;;15.16;81.83
25722;BME280;13578;53.450;15.496;2023-05-19T07:30:26;100954.69;;;15.15;78.95
25722;BME280;13578;53.450;15.496;2023-05-19T07:33:27;100939.44;;;14.80;77.65
25722;BME280;13578;53.450;15.496;2023-05-19T07:36:27;100952.69;;;15.17;78.83
25722;BME280;13578;53.450;15.496;2023-05-19T07:39:28;100940.25;;;15.01;76.84
25722;BME280;13578;53.450;15.496;2023-05-19T07:42:31;100954.50;;;15.06;80.94
25722;BME280;13578;53.450;15.496;2023-05-19T07:45:32;100955.25;;;15.49;79.71
25722;BME280;13578;53.450;15.496;2023-05-19T07:48:32;100927.97;;;15.35;77.24
25722;BME280;13578;53.450;15.496;2023-05-19T07:51:33;100948.28;;;15.75;78.71
25722;BME280;13578;53.450;15.496;2023-05-19T07:54:33;100925.31;;;15.84;75.62
25722;BME280;13578;53.450;15.496;2023-05-19T07:57:34;100932.28;;;16.17;75.82
25722;BME280;13578;53.450;15.496;2023-05-19T08:00:35;100933.97;;;16.48;75.30
25722;BME280;13578;53.450;15.496;2023-05-19T08:03:36;100932.25;;;16.94;72.75
25722;BME280;13578;53.450;15.496;2023-05-19T08:06:36;100933.00;;;16.29;72.42
25722;BME280;13578;53.450;15.496;2023-05-19T08:09:37;100939.00;;;16.25;72.59
25722;BME280;13578;53.450;15.496;2023-05-19T08:12:38;100940.16;;;16.32;72.04
25722;BME280;13578;53.450;15.496;2023-05-19T08:15:38;100940.84;;;16.34;72.82
25722;BME280;13578;53.450;15.496;2023-05-19T08:18:39;100936.78;;;16.28;71.42
25722;BME280;13578;53.450;15.496;2023-05-19T08:21:40;100948.56;;;16.30;74.38
25722;BME280;13578;53.450;15.496;2023-05-19T08:24:41;100927.56;;;16.47;71.19
25722;BME280;13578;53.450;15.496;2023-05-19T08:27:42;100939.94;;;16.63;73.84
25722;BME280;13578;53.450;15.496;2023-05-19T08:30:43;100927.69;;;16.46;71.48
25722;BME280;13578;53.450;15.496;2023-05-19T08:33:43;100918.56;;;16.16;70.84
25722;BME280;13578;53.450;15.496;2023-05-19T08:36:44;100910.41;;;15.75;72.07
25722;BME280;13578;53.450;15.496;2023-05-19T08:39:46;100926.47;;;15.91;72.88
25722;BME280;13578;53.450;15.496;2023-05-19T08:42:47;100922.97;;;15.89;71.77
25722;BME280;13578;53.450;15.496;2023-05-19T08:45:48;100916.84;;;15.95;72.05
25722;BME280;13578;53.450;15.496;2023-05-19T08:48:53;100925.59;;;16.00;72.08
25722;BME280;13578;53.450;15.496;2023-05-19T08:52:46;100927.19;;;16.13;73.65
25722;BME280;13578;53.450;15.496;2023-05-19T08:58:48;100909.97;;;16.29;71.87
25722;BME280;13578;53.450;15.496;2023-05-19T09:01:50;100908.56;;;16.62;71.63
25722;BME280;13578;53.450;15.496;2023-05-19T09:04:51;100896.75;;;16.70;71.14
25722;BME280;13578;53.450;15.496;2023-05-19T09:07:52;100868.47;;;16.57;66.30
25722;BME280;13578;53.450;15.496;2023-05-19T09:10:53;100886.22;;;16.74;68.57
25722;BME280;13578;53.450;15.496;2023-05-19T09:13:53;100891.41;;;16.49;67.12
25722;BME280;13578;53.450;15.496;2023-05-19T09:16:54;100890.63;;;16.66;68.77
25722;BME280;13578;53.450;15.496;2023-05-19T09:19:55;100888.88;;;16.65;67.77
25722;BME280;13578;53.450;15.496;2023-05-19T09:22:55;100878.72;;;16.84;65.97
25722;BME280;13578;53.450;15.496;2023-05-19T09:25:56;100874.84;;;17.05;65.83
25722;BME280;13578;53.450;15.496;2023-05-19T09:28:57;100861.84;;;16.67;63.31
25722;BME280;13578;53.450;15.496;2023-05-19T09:31:58;100858.69;;;16.62;62.96
25722;BME280;13578;53.450;15.496;2023-05-19T09:35:02;100870.22;;;16.86;63.71
25722;BME280;13578;53.450;15.496;2023-05-19T09:38:03;100867.72;;;17.02;63.09
25722;BME280;13578;53.450;15.496;2023-05-19T09:41:05;100871.28;;;17.40;63.47
25722;BME280;13578;53.450;15.496;2023-05-19T09:44:06;100848.81;;;17.52;60.97
25722;BME280;13578;53.450;15.496;2023-05-19T09:47:08;100872.63;;;17.36;63.90
25722;BME280;13578;53.450;15.496;2023-05-19T09:50:11;100858.41;;;17.39;62.14
25722;BME280;13578;53.450;15.496;2023-05-19T09:53:13;100860.41;;;17.47;61.42
25722;BME280;13578;53.450;15.496;2023-05-19T09:56:14;100852.78;;;17.67;62.04
25722;BME280;13578;53.450;15.496;2023-05-19T09:59:15;100851.75;;;17.50;60.22
25722;BME280;13578;53.450;15.496;2023-05-19T10:02:16;100853.75;;;17.40;61.63
25722;BME280;13578;53.450;15.496;2023-05-19T10:05:20;100856.53;;;17.40;61.02
25722;BME280;13578;53.450;15.496;2023-05-19T10:08:22;100860.41;;;17.65;63.03
25722;BME280;13578;53.450;15.496;2023-05-19T10:11:26;100862.00;;;18.04;64.07
25722;BME280;13578;53.450;15.496;2023-05-19T10:14:28;100848.75;;;17.80;62.42
25722;BME280;13578;53.450;15.496;2023-05-19T10:17:29;100847.03;;;17.60;61.94
25722;BME280;13578;53.450;15.496;2023-05-19T10:20:31;100842.31;;;17.79;61.62
25722;BME280;13578;53.450;15.496;2023-05-19T10:23:34;100856.75;;;17.65;63.54
25722;BME280;13578;53.450;15.496;2023-05-19T10:26:35;100841.13;;;17.45;62.07
25722;BME280;13578;53.450;15.496;2023-05-19T10:29:38;100868.59;;;17.67;63.75
25722;BME280;13578;53.450;15.496;2023-05-19T10:32:42;100843.81;;;17.73;60.76
25722;BME280;13578;53.450;15.496;2023-05-19T10:36:04;100838.13;;;17.75;60.49
25722;BME280;13578;53.450;15.496;2023-05-19T10:39:24;100827.19;;;17.55;60.13
25722;BME280;13578;53.450;15.496;2023-05-19T10:42:43;100836.06;;;17.41;60.93
25722;BME280;13578;53.450;15.496;2023-05-19T10:45:47;100825.16;;;16.93;59.98
25722;BME280;13578;53.450;15.496;2023-05-19T10:48:48;100829.06;;;17.19;60.75
25722;BME280;13578;53.450;15.496;2023-05-19T10:51:51;100840.09;;;17.46;61.16
25722;BME280;13578;53.450;15.496;2023-05-19T10:54:54;100828.22;;;17.72;60.04
25722;BME280;13578;53.450;15.496;2023-05-19T10:57:55;100838.69;;;17.78;61.38
25722;BME280;13578;53.450;15.496;2023-05-19T11:00:59;100842.63;;;17.94;62.35
25722;BME280;13578;53.450;15.496;2023-05-19T11:04:05;100818.66;;;17.93;58.92
25722;BME280;13578;53.450;15.496;2023-05-19T11:07:07;100809.97;;;17.88;57.36
25722;BME280;13578;53.450;15.496;2023-05-19T11:10:08;100813.16;;;17.75;57.75
25722;BME280;13578;53.450;15.496;2023-05-19T11:13:18;100839.72;;;17.96;59.58
25722;BME280;13578;53.450;15.496;2023-05-19T11:16:26;100809.97;;;17.88;55.80
25722;BME280;13578;53.450;15.496;2023-05-19T11:19:33;100811.22;;;17.75;56.79
25722;BME280;13578;53.450;15.496;2023-05-19T11:22:34;100811.78;;;17.79;57.86
25722;BME280;13578;53.450;15.496;2023-05-19T11:25:50;100814.31;;;17.90;58.48
25722;BME280;13578;53.450;15.496;2023-05-19T11:28:51;100816.63;;;17.59;57.86
25722;BME280;13578;53.450;15.496;2023-05-19T11:31:53;100814.03;;;17.39;57.47
25722;BME280;13578;53.450;15.496;2023-05-19T11:34:54;100821.06;;;17.70;58.81
25722;BME280;13578;53.450;15.496;2023-05-19T11:37:55;100826.31;;;17.73;59.01
25722;BME280;13578;53.450;15.496;2023-05-19T11:40:56;100806.50;;;17.68;57.18
25722;BME280;13578;53.450;15.496;2023-05-19T11:43:57;100798.78;;;17.98;57.13
25722;BME280;13578;53.450;15.496;2023-05-19T11:46:58;100800.28;;;18.18;57.49
25722;BME280;13578;53.450;15.496;2023-05-19T11:49:59;100803.28;;;17.99;57.18
25722;BME280;13578;53.450;15.496;2023-05-19T11:53:00;100811.66;;;17.89;58.35
25722;BME280;13578;53.450;15.496;2023-05-19T11:56:03;100814.72;;;17.77;58.70
25722;BME280;13578;53.450;15.496;2023-05-19T11:59:04;100823.69;;;17.71;59.78
25722;BME280;13578;53.450;15.496;2023-05-19T12:02:19;100804.22;;;18.07;57.77
25722;BME280;13578;53.450;15.496;2023-05-19T12:05:21;100802.09;;;17.83;57.85
25722;BME280;13578;53.450;15.496;2023-05-19T12:08:22;100813.00;;;17.58;59.36
25722;BME280;13578;53.450;15.496;2023-05-19T12:11:23;100827.41;;;17.80;61.14
25722;BME280;13578;53.450;15.496;2023-05-19T12:14:29;100811.50;;;17.46;60.18
25722;BME280;13578;53.450;15.496;2023-05-19T12:17:31;100825.75;;;17.69;61.82
25722;BME280;13578;53.450;15.496;2023-05-19T12:20:32;100839.53;;;17.79;62.15
25722;BME280;13578;53.450;15.496;2023-05-19T12:23:34;100825.34;;;17.82;61.64
25722;BME280;13578;53.450;15.496;2023-05-19T12:26:35;100826.13;;;17.74;61.85
25722;BME280;13578;53.450;15.496;2023-05-19T12:29:37;100828.91;;;17.56;62.67
25722;BME280;13578;53.450;15.496;2023-05-19T12:32:38;100849.16;;;17.67;64.76
25722;BME280;13578;53.450;15.496;2023-05-19T12:35:41;100839.06;;;17.66;63.37
25722;BME280;13578;53.450;15.496;2023-05-19T12:38:42;100840.47;;;17.15;63.34
25722;BME280;13578;53.450;15.496;2023-05-19T12:41:44;100828.50;;;16.97;62.25
25722;BME280;13578;53.450;15.496;2023-05-19T12:44:49;100836.34;;;17.02;63.93
25722;BME280;13578;53.450;15.496;2023-05-19T12:47:53;100849.22;;;17.21;65.77
25722;BME280;13578;53.450;15.496;2023-05-19T12:50:55;100848.69;;;17.35;65.49
25722;BME280;13578;53.450;15.496;2023-05-19T12:53:55;100850.91;;;17.32;66.37
25722;BME280;13578;53.450;15.496;2023-05-19T12:56:58;100847.72;;;17.44;67.22
25722;BME280;13578;53.450;15.496;2023-05-19T13:00:02;100837.88;;;17.68;66.07
25722;BME280;13578;53.450;15.496;2023-05-19T13:03:07;100827.34;;;17.36;65.25
25722;BME280;13578;53.450;15.496;2023-05-19T13:06:09;100844.50;;;17.03;67.08
25722;BME280;13578;53.450;15.496;2023-05-19T13:09:10;100852.66;;;17.05;67.07
25722;BME280;13578;53.450;15.496;2023-05-19T13:12:10;100845.44;;;16.84;67.22
25722;BME280;13578;53.450;15.496;2023-05-19T13:15:11;100836.09;;;16.85;67.84
25722;BME280;13578;53.450;15.496;2023-05-19T13:18:12;100832.13;;;16.97;66.79
25722;BME280;13578;53.450;15.496;2023-05-19T13:21:13;100851.72;;;17.14;67.66
25722;BME280;13578;53.450;15.496;2023-05-19T13:24:14;100834.78;;;17.17;67.02
25722;BME280;13578;53.450;15.496;2023-05-19T13:27:14;100838.44;;;17.36;67.64
25722;BME280;13578;53.450;15.496;2023-05-19T13:30:17;100826.06;;;17.48;67.65
25722;BME280;13578;53.450;15.496;2023-05-19T13:33:18;100815.28;;;17.81;66.85
25722;BME280;13578;53.450;15.496;2023-05-19T13:36:18;100819.69;;;18.10;66.99
25722;BME280;13578;53.450;15.496;2023-05-19T13:39:19;100804.22;;;18.07;65.31
25722;BME280;13578;53.450;15.496;2023-05-19T13:42:20;100814.34;;;18.17;64.69
25722;BME280;13578;53.450;15.496;2023-05-19T13:45:20;100806.47;;;17.86;63.95
25722;BME280;13578;53.450;15.496;2023-05-19T13:48:21;100807.63;;;17.39;64.15
25722;BME280;13578;53.450;15.496;2023-05-19T13:51:21;100815.69;;;17.14;65.96
25722;BME280;13578;53.450;15.496;2023-05-19T13:54:22;100827.56;;;17.06;67.61
25722;BME280;13578;53.450;15.496;2023-05-19T13:57:23;100826.03;;;17.12;67.45
25722;BME280;13578;53.450;15.496;2023-05-19T14:00:27;100813.38;;;16.81;65.95
25722;BME280;13578;53.450;15.496;2023-05-19T14:03:27;100812.59;;;16.61;66.24
25722;BME280;13578;53.450;15.496;2023-05-19T14:06:29;100828.47;;;16.69;67.01
25722;BME280;13578;53.450;15.496;2023-05-19T14:09:29;100838.25;;;16.63;68.66
25722;BME280;13578;53.450;15.496;2023-05-19T14:12:30;100830.34;;;16.68;68.40
25722;BME280;13578;53.450;15.496;2023-05-19T14:15:32;100846.38;;;16.75;69.20
25722;BME280;13578;53.450;15.496;2023-05-19T14:18:36;100844.66;;;16.74;69.12
25722;BME280;13578;53.450;15.496;2023-05-19T14:21:37;100847.50;;;16.82;69.78
25722;BME280;13578;53.450;15.496;2023-05-19T14:24:38;100850.25;;;16.82;69.78
25722;BME280;13578;53.450;15.496;2023-05-19T14:27:38;100842.94;;;16.63;69.54
25722;BME280;13578;53.450;15.496;2023-05-19T14:30:39;100861.34;;;16.54;72.62
25722;BME280;13578;53.450;15.496;2023-05-19T14:33:40;100857.38;;;16.66;72.33
25722;BME280;13578;53.450;15.496;2023-05-19T14:36:41;100879.13;;;16.89;73.67
25722;BME280;13578;53.450;15.496;2023-05-19T14:39:42;100860.19;;;16.85;72.43
25722;BME280;13578;53.450;15.496;2023-05-19T14:42:43;100847.97;;;16.77;71.10
25722;BME280;13578;53.450;15.496;2023-05-19T14:45:43;100852.91;;;16.46;71.19
25722;BME280;13578;53.450;15.496;2023-05-19T14:48:44;100867.19;;;16.51;72.47
25722;BME280;13578;53.450;15.496;2023-05-19T14:51:45;100859.91;;;16.50;72.41
25722;BME280;13578;53.450;15.496;2023-05-19T14:54:45;100856.47;;;16.28;71.98
25722;BME280;13578;53.450;15.496;2023-05-19T14:57:46;100867.69;;;16.37;72.29
25722;BME280;13578;53.450;15.496;2023-05-19T15:00:47;100856.00;;;16.43;70.67
25722;BME280;13578;53.450;15.496;2023-05-19T15:03:47;100847.47;;;16.54;70.65
25722;BME280;13578;53.450;15.496;2023-05-19T15:06:48;100849.97;;;16.57;70.35
25722;BME280;13578;53.450;15.496;2023-05-19T15:09:48;100835.69;;;16.52;68.68
25722;BME280;13578;53.450;15.496;2023-05-19T15:12:49;100829.59;;;16.39;68.04
25722;BME280;13578;53.450;15.496;2023-05-19T15:15:52;100834.75;;;16.61;67.26
25722;BME280;13578;53.450;15.496;2023-05-19T15:18:54;100810.66;;;16.34;64.98
25722;BME280;13578;53.450;15.496;2023-05-19T15:21:54;100811.97;;;16.40;64.87
25722;BME280;13578;53.450;15.496;2023-05-19T15:24:55;100807.16;;;16.42;63.74
25722;BME280;13578;53.450;15.496;2023-05-19T15:27:56;100801.78;;;16.30;62.63
25722;BME280;13578;53.450;15.496;2023-05-19T15:30:56;100804.22;;;16.43;63.92
25722;BME280;13578;53.450;15.496;2023-05-19T15:33:57;100795.94;;;16.33;63.15
25722;BME280;13578;53.450;15.496;2023-05-19T15:36:58;100805.56;;;16.39;64.82
25722;BME280;13578;53.450;15.496;2023-05-19T15:39:58;100809.81;;;16.33;65.09
25722;BME280;13578;53.450;15.496;2023-05-19T15:42:59;100812.06;;;16.48;65.87
25722;BME280;13578;53.450;15.496;2023-05-19T15:46:00;100813.97;;;16.47;65.24
25722;BME280;13578;53.450;15.496;2023-05-19T15:49:01;100826.94;;;16.47;66.93
25722;BME280;13578;53.450;15.496;2023-05-19T15:52:02;100866.34;;;16.41;74.23